Main page
METAR-TAF:

METAR-TAF

Airports :

Wattisham Flying Station

Wattisham, England

latitude: 52-07N, longitude: 000-58E, elevation: 87 m

Current weather observation

The report was made 42 minutes ago, at 01:50 UTC
Wind 4 kt from the North
Temperature -1°C
Humidity 100%
Pressure 1034 hPa
Visibility 10 km or more

METAR: EGUW 060150Z AUTO 01004KT 9999 // FEW044/// M01/M01 Q1034

Time: 02:32 (02:32 UTC)

Forecast

The report was made 12 hours and 58 minutes ago, at 13:34 UTC
Forecast valid from 05 at 15 UTC to 05 at 19 UTC
Wind 10 kt from the Northeast
Visibility 10 km or more
Broken clouds at a height of 4000 ft

TAF: EGUW 051334Z 0515/0519 04010KT 9999 BKN040

Weather observations and forecasts of more than 4000 airports (METAR and TAF reports).

The available stations are represented by yellow and red dots on the map.

Hover mouse over dot to see the name of the station.

Then click to see weather observations and forecasts.

To change the map : click on the green buttons with a black cross to zoom in, on the green button with a dash to zoom out, or on the green arrows for adjacent maps.


METAR-TAF: